createdAt,value
2017-10-25T00:00:01.052Z,0
2017-10-25T00:00:27.844Z,0
2017-10-25T00:00:54.268Z,0
2017-10-25T00:01:20.565Z,0
2017-10-25T00:01:46.891Z,0
2017-10-25T00:02:13.259Z,0
2017-10-25T00:02:39.536Z,0
2017-10-25T00:03:05.901Z,0
2017-10-25T00:03:32.102Z,0
2017-10-25T00:03:58.358Z,0
2017-10-25T00:04:24.712Z,0
2017-10-25T00:04:50.861Z,0
2017-10-25T00:05:17.182Z,0
2017-10-25T00:05:43.382Z,0
2017-10-25T00:06:09.678Z,0
2017-10-25T00:06:35.875Z,0
2017-10-25T00:07:02.591Z,0
2017-10-25T00:07:28.639Z,0
2017-10-25T00:07:54.761Z,0
2017-10-25T00:08:20.885Z,0
2017-10-25T00:08:47.007Z,0
2017-10-25T00:09:13.134Z,0
2017-10-25T00:09:39.283Z,0
2017-10-25T00:10:05.407Z,0
2017-10-25T00:10:31.533Z,0
2017-10-25T00:10:57.658Z,0
2017-10-25T00:11:23.786Z,0
2017-10-25T00:11:49.909Z,0
2017-10-25T00:12:16.054Z,0
2017-10-25T00:12:42.180Z,0
2017-10-25T00:13:08.306Z,0
2017-10-25T00:13:34.431Z,0
2017-10-25T00:14:00.548Z,0
2017-10-25T00:14:26.677Z,0
2017-10-25T00:14:52.796Z,0
2017-10-25T00:15:18.938Z,0
2017-10-25T00:15:45.060Z,0
2017-10-25T00:16:11.187Z,0
2017-10-25T00:16:37.335Z,0
2017-10-25T00:17:03.456Z,0
2017-10-25T00:17:29.582Z,0
2017-10-25T00:17:55.699Z,0
2017-10-25T00:18:21.820Z,0
2017-10-25T00:18:47.948Z,0
2017-10-25T00:19:14.071Z,0
2017-10-25T00:19:40.196Z,0
2017-10-25T00:20:06.320Z,0
2017-10-25T00:20:32.448Z,0
2017-10-25T00:20:58.568Z,0
2017-10-25T00:21:24.701Z,0
2017-10-25T00:21:50.817Z,0
2017-10-25T00:22:16.943Z,0
2017-10-25T00:22:43.072Z,0
2017-10-25T00:23:09.195Z,0
2017-10-25T00:23:35.317Z,0
2017-10-25T00:24:01.441Z,0
2017-10-25T00:24:27.587Z,0
2017-10-25T00:24:53.712Z,0
2017-10-25T00:25:19.834Z,0
2017-10-25T00:25:45.970Z,0
2017-10-25T00:26:12.082Z,0
2017-10-25T00:26:38.211Z,0
2017-10-25T00:27:04.336Z,0
2017-10-25T00:27:30.476Z,0
2017-10-25T00:27:56.605Z,0
2017-10-25T00:28:22.726Z,0
2017-10-25T00:28:48.867Z,0
2017-10-25T00:29:14.998Z,0
2017-10-25T00:29:41.116Z,0
2017-10-25T00:30:07.243Z,0
2017-10-25T00:30:33.363Z,0
2017-10-25T00:30:59.491Z,0
2017-10-25T00:31:25.616Z,0
2017-10-25T00:31:51.739Z,0
2017-10-25T00:32:17.866Z,0
2017-10-25T00:32:43.983Z,0
2017-10-25T00:33:10.112Z,0
2017-10-25T00:33:36.237Z,0
2017-10-25T00:34:02.361Z,0
2017-10-25T00:34:28.492Z,0
2017-10-25T00:34:54.612Z,0
2017-10-25T00:35:20.741Z,0
2017-10-25T00:35:46.856Z,0
2017-10-25T00:36:12.984Z,0
2017-10-25T00:36:39.107Z,0
2017-10-25T00:37:05.244Z,0
2017-10-25T00:37:31.363Z,0
2017-10-25T00:37:57.482Z,0
2017-10-25T00:38:23.609Z,0
2017-10-25T00:38:49.729Z,0
2017-10-25T00:39:15.853Z,0
2017-10-25T00:39:41.972Z,0
2017-10-25T00:40:08.099Z,0
2017-10-25T00:40:34.226Z,0
2017-10-25T00:41:00.347Z,0
2017-10-25T00:41:26.474Z,0
2017-10-25T00:41:52.602Z,0
2017-10-25T00:42:18.749Z,0
2017-10-25T00:42:44.864Z,0
2017-10-25T00:43:10.997Z,0
2017-10-25T00:43:37.111Z,0
2017-10-25T00:44:03.238Z,0
2017-10-25T00:44:29.370Z,0
2017-10-25T00:44:55.492Z,0
2017-10-25T00:45:21.621Z,0
2017-10-25T00:45:47.738Z,0
2017-10-25T00:46:13.865Z,0
2017-10-25T00:46:39.992Z,0
2017-10-25T00:47:06.118Z,0
2017-10-25T00:47:32.237Z,0
2017-10-25T00:47:58.367Z,0
2017-10-25T00:48:24.484Z,0
2017-10-25T00:48:50.607Z,0
2017-10-25T00:49:16.732Z,0
2017-10-25T00:49:42.852Z,0
2017-10-25T00:50:08.975Z,0
2017-10-25T00:50:35.096Z,0
2017-10-25T00:51:01.225Z,0
2017-10-25T00:51:27.351Z,0
2017-10-25T00:51:53.471Z,0
2017-10-25T00:52:19.600Z,0
2017-10-25T00:52:45.719Z,0
2017-10-25T00:53:11.841Z,0
2017-10-25T00:53:37.970Z,0
2017-10-25T00:54:04.091Z,0
2017-10-25T00:54:30.221Z,0
2017-10-25T00:54:56.340Z,0
2017-10-25T00:55:22.465Z,0
2017-10-25T00:55:48.594Z,0
2017-10-25T00:56:14.713Z,0
2017-10-25T00:56:40.834Z,0
2017-10-25T00:57:06.962Z,0
2017-10-25T00:57:33.090Z,0
2017-10-25T00:57:59.213Z,0
2017-10-25T00:58:25.341Z,0
2017-10-25T00:58:51.479Z,0
2017-10-25T00:59:17.607Z,0
2017-10-25T00:59:43.729Z,0
2017-10-25T01:00:09.847Z,0
2017-10-25T01:00:35.975Z,0
2017-10-25T01:01:02.106Z,0
2017-10-25T01:01:28.221Z,0
2017-10-25T01:01:54.351Z,0
2017-10-25T01:02:20.469Z,0
2017-10-25T01:02:46.597Z,0
2017-10-25T01:03:12.713Z,0
2017-10-25T01:03:38.835Z,0
2017-10-25T01:04:04.962Z,0
2017-10-25T01:04:31.120Z,0
2017-10-25T01:04:57.241Z,0
2017-10-25T01:05:23.372Z,0
2017-10-25T01:05:49.497Z,0
2017-10-25T01:06:15.615Z,0
2017-10-25T01:06:41.741Z,0
2017-10-25T01:07:07.866Z,0
2017-10-25T01:07:33.989Z,0
2017-10-25T01:08:00.113Z,0
2017-10-25T01:08:26.243Z,0
2017-10-25T01:08:52.443Z,0
2017-10-25T01:09:18.614Z,0
2017-10-25T01:09:44.734Z,0
2017-10-25T01:10:10.856Z,0
2017-10-25T01:10:36.984Z,0
2017-10-25T01:11:03.116Z,0
2017-10-25T01:11:29.239Z,0
2017-10-25T01:11:55.360Z,0
2017-10-25T01:12:21.486Z,0
2017-10-25T01:12:47.605Z,0
2017-10-25T01:13:13.736Z,0
2017-10-25T01:13:39.861Z,0
2017-10-25T01:14:05.984Z,0
2017-10-25T01:14:32.134Z,0
2017-10-25T01:14:58.277Z,0
2017-10-25T01:15:24.396Z,0
2017-10-25T01:15:50.525Z,0
2017-10-25T01:16:16.648Z,0
2017-10-25T01:16:42.787Z,0
2017-10-25T01:17:08.915Z,0
2017-10-25T01:17:35.035Z,0
2017-10-25T01:18:01.184Z,0
2017-10-25T01:18:27.312Z,0
2017-10-25T01:18:53.454Z,0
2017-10-25T01:19:19.574Z,0
2017-10-25T01:19:45.706Z,0
2017-10-25T01:20:11.819Z,0
2017-10-25T01:20:37.970Z,0
2017-10-25T01:21:04.090Z,0
2017-10-25T01:21:30.216Z,0
2017-10-25T01:21:56.346Z,0
2017-10-25T01:22:22.491Z,0
2017-10-25T01:22:48.588Z,0
2017-10-25T01:23:14.714Z,0
2017-10-25T01:23:40.830Z,0
2017-10-25T01:24:06.960Z,0
2017-10-25T01:24:33.090Z,0
2017-10-25T01:24:59.215Z,0
2017-10-25T01:25:25.343Z,0
2017-10-25T01:25:51.459Z,0
2017-10-25T01:26:17.583Z,0
2017-10-25T01:26:43.714Z,0
2017-10-25T01:27:09.840Z,0
2017-10-25T01:27:35.970Z,0
2017-10-25T01:28:02.095Z,0
2017-10-25T01:28:28.223Z,0
2017-10-25T01:28:54.349Z,0
2017-10-25T01:29:20.480Z,0
2017-10-25T01:29:46.621Z,0
2017-10-25T01:30:12.747Z,0
2017-10-25T01:30:38.869Z,0
2017-10-25T01:31:04.986Z,0
2017-10-25T01:31:31.110Z,0
2017-10-25T01:31:57.241Z,0
2017-10-25T01:32:23.366Z,0
2017-10-25T01:32:49.484Z,0
2017-10-25T01:33:15.827Z,0
2017-10-25T01:33:42.185Z,0
2017-10-25T01:34:08.490Z,0
2017-10-25T01:34:34.771Z,0
2017-10-25T01:35:01.001Z,0
2017-10-25T01:35:27.127Z,0
2017-10-25T01:35:53.256Z,0
2017-10-25T01:36:19.379Z,0
2017-10-25T01:36:45.519Z,0
2017-10-25T01:37:11.648Z,0
2017-10-25T01:37:37.783Z,0
2017-10-25T01:38:03.900Z,0
2017-10-25T01:38:30.027Z,0
2017-10-25T01:38:56.151Z,0
2017-10-25T01:39:22.268Z,0
2017-10-25T01:39:48.403Z,0
2017-10-25T01:40:14.521Z,0
2017-10-25T01:40:40.648Z,0
2017-10-25T01:41:06.773Z,0
2017-10-25T01:41:32.894Z,0
2017-10-25T01:41:59.018Z,0
2017-10-25T01:42:25.137Z,0
2017-10-25T01:42:51.267Z,0
2017-10-25T01:43:17.385Z,0
2017-10-25T01:43:43.506Z,0
2017-10-25T01:44:09.635Z,0
2017-10-25T01:44:35.753Z,0
2017-10-25T01:45:01.886Z,0
2017-10-25T01:45:28.010Z,0
2017-10-25T01:45:54.135Z,0
2017-10-25T01:46:20.261Z,0
2017-10-25T01:46:46.375Z,0
2017-10-25T01:47:12.501Z,0
2017-10-25T01:47:38.623Z,0
2017-10-25T01:48:04.754Z,0
2017-10-25T01:48:30.895Z,0
2017-10-25T01:48:57.018Z,0
2017-10-25T01:49:23.153Z,0
2017-10-25T01:49:49.269Z,0
2017-10-25T01:50:15.394Z,0
2017-10-25T01:50:41.517Z,0
2017-10-25T01:51:07.642Z,0
2017-10-25T01:51:33.770Z,0
2017-10-25T01:51:59.890Z,0
2017-10-25T01:52:26.022Z,0
2017-10-25T01:52:52.136Z,0
2017-10-25T01:53:18.275Z,0
2017-10-25T01:53:44.383Z,0
2017-10-25T01:54:10.499Z,0
2017-10-25T01:54:36.628Z,0
2017-10-25T01:55:02.772Z,0
2017-10-25T01:55:28.895Z,0
2017-10-25T01:55:55.027Z,0
2017-10-25T01:56:21.148Z,0
2017-10-25T01:56:47.268Z,0
2017-10-25T01:57:13.414Z,0
2017-10-25T01:57:39.541Z,0
2017-10-25T01:58:05.664Z,0
2017-10-25T01:58:31.788Z,0
2017-10-25T01:58:57.908Z,0
2017-10-25T01:59:24.037Z,0
2017-10-25T01:59:50.158Z,0
2017-10-25T02:00:16.282Z,0
2017-10-25T02:00:42.406Z,0
2017-10-25T02:01:08.529Z,0
2017-10-25T02:01:34.663Z,0
2017-10-25T02:02:00.776Z,0
2017-10-25T02:02:26.907Z,0
2017-10-25T02:02:53.033Z,0
2017-10-25T02:03:19.151Z,0
2017-10-25T02:03:45.280Z,0
2017-10-25T02:04:11.400Z,0
2017-10-25T02:04:37.526Z,0
2017-10-25T02:05:03.648Z,0
2017-10-25T02:05:29.777Z,0
2017-10-25T02:05:55.894Z,0
2017-10-25T02:06:22.018Z,0
2017-10-25T02:06:48.143Z,0
2017-10-25T02:07:14.271Z,0
2017-10-25T02:07:40.397Z,0
2017-10-25T02:08:06.521Z,0
2017-10-25T02:08:32.649Z,0
2017-10-25T02:08:58.787Z,0
2017-10-25T02:09:24.927Z,0
2017-10-25T02:09:51.054Z,0
2017-10-25T02:10:17.205Z,0
2017-10-25T02:10:43.327Z,0
2017-10-25T02:11:09.446Z,0
2017-10-25T02:11:35.568Z,0
2017-10-25T02:12:01.694Z,0
2017-10-25T02:12:27.820Z,0
2017-10-25T02:12:53.948Z,0
2017-10-25T02:13:20.069Z,0
2017-10-25T02:13:46.199Z,0
2017-10-25T02:14:12.326Z,0
2017-10-25T02:14:38.443Z,0
2017-10-25T02:15:04.564Z,0
2017-10-25T02:15:30.692Z,0
2017-10-25T02:15:56.815Z,0
2017-10-25T02:16:22.938Z,0
2017-10-25T02:16:49.065Z,0
2017-10-25T02:17:15.182Z,0
2017-10-25T02:17:41.313Z,0
2017-10-25T02:18:07.432Z,0
2017-10-25T02:18:33.588Z,0
2017-10-25T02:18:59.727Z,0
2017-10-25T02:19:25.858Z,0
2017-10-25T02:19:51.974Z,0
2017-10-25T02:20:18.099Z,0
2017-10-25T02:20:44.225Z,0
2017-10-25T02:21:10.349Z,0
2017-10-25T02:21:36.478Z,0
2017-10-25T02:22:02.603Z,0
2017-10-25T02:22:28.723Z,0
2017-10-25T02:22:54.852Z,0
2017-10-25T02:23:20.978Z,0
2017-10-25T02:23:47.097Z,0
2017-10-25T02:24:13.223Z,0
2017-10-25T02:24:39.345Z,0
2017-10-25T02:25:05.473Z,0
2017-10-25T02:25:31.593Z,0
2017-10-25T02:25:57.722Z,0
2017-10-25T02:26:23.847Z,0
2017-10-25T02:26:49.977Z,0
2017-10-25T02:27:16.087Z,0
2017-10-25T02:27:42.216Z,0
2017-10-25T02:28:08.335Z,0
2017-10-25T02:28:34.461Z,0
2017-10-25T02:29:00.590Z,0
2017-10-25T02:29:26.714Z,0
2017-10-25T02:29:52.839Z,0
2017-10-25T02:30:18.965Z,0
2017-10-25T02:30:45.100Z,0
2017-10-25T02:31:11.216Z,0
2017-10-25T02:31:37.344Z,0
2017-10-25T02:32:03.469Z,0
2017-10-25T02:32:29.594Z,0
2017-10-25T02:32:55.722Z,0
2017-10-25T02:33:21.853Z,0
2017-10-25T02:33:47.967Z,0
2017-10-25T02:34:14.109Z,0
2017-10-25T02:34:40.259Z,0
2017-10-25T02:35:06.383Z,0
2017-10-25T02:35:32.532Z,0
2017-10-25T02:35:58.650Z,0
2017-10-25T02:36:24.779Z,0
2017-10-25T02:36:50.901Z,0
2017-10-25T02:37:17.026Z,0
2017-10-25T02:37:43.148Z,0
2017-10-25T02:38:09.277Z,0
2017-10-25T02:38:35.399Z,0
2017-10-25T02:39:01.526Z,0
2017-10-25T02:39:27.647Z,0
2017-10-25T02:39:53.772Z,0
2017-10-25T02:40:19.894Z,0
2017-10-25T02:40:46.012Z,0
2017-10-25T02:41:12.136Z,0
2017-10-25T02:41:38.268Z,0
2017-10-25T02:42:04.387Z,0
2017-10-25T02:42:30.512Z,0
2017-10-25T02:42:56.642Z,0
2017-10-25T02:43:22.760Z,0
2017-10-25T02:43:48.882Z,0
2017-10-25T02:44:15.016Z,0
2017-10-25T02:44:41.162Z,0
2017-10-25T02:45:07.286Z,0
2017-10-25T02:45:33.407Z,0
2017-10-25T02:45:59.533Z,0
2017-10-25T02:46:25.681Z,0
2017-10-25T02:46:51.817Z,0
2017-10-25T02:47:17.939Z,0
2017-10-25T02:47:44.071Z,0
2017-10-25T02:48:10.188Z,0
2017-10-25T02:48:36.315Z,0
2017-10-25T02:49:02.451Z,0
2017-10-25T02:49:28.595Z,0
2017-10-25T02:49:54.721Z,0
2017-10-25T02:50:20.840Z,0
2017-10-25T02:50:46.961Z,0
2017-10-25T02:51:13.089Z,0
2017-10-25T02:51:39.209Z,0
2017-10-25T02:52:05.336Z,0
2017-10-25T02:52:31.454Z,0
2017-10-25T02:52:57.587Z,0
2017-10-25T02:53:23.719Z,0
2017-10-25T02:53:49.838Z,0
2017-10-25T02:54:15.990Z,0
2017-10-25T02:54:42.104Z,0
2017-10-25T02:55:08.245Z,0
2017-10-25T02:55:34.370Z,0
2017-10-25T02:56:00.495Z,0
2017-10-25T02:56:26.618Z,0
2017-10-25T02:56:52.741Z,0
2017-10-25T02:57:18.868Z,0
2017-10-25T02:57:44.995Z,0
2017-10-25T02:58:11.116Z,0
2017-10-25T02:58:37.245Z,0
2017-10-25T02:59:03.378Z,0
2017-10-25T02:59:29.498Z,0
2017-10-25T02:59:55.643Z,0
2017-10-25T03:00:21.744Z,0
2017-10-25T03:00:47.864Z,0
2017-10-25T03:01:13.986Z,0
2017-10-25T03:01:40.114Z,0
2017-10-25T03:02:06.233Z,0
2017-10-25T03:02:32.364Z,0
2017-10-25T03:02:58.489Z,0
2017-10-25T03:03:24.605Z,0
2017-10-25T03:03:50.734Z,0
2017-10-25T03:04:16.853Z,0
2017-10-25T03:04:42.982Z,0
2017-10-25T03:05:09.111Z,0
2017-10-25T03:05:35.229Z,0
2017-10-25T03:06:01.354Z,0
2017-10-25T03:06:27.476Z,0
2017-10-25T03:06:53.605Z,0
2017-10-25T03:07:19.725Z,0
2017-10-25T03:07:45.852Z,0
2017-10-25T03:08:11.978Z,0
2017-10-25T03:08:38.098Z,0
2017-10-25T03:09:04.227Z,0
2017-10-25T03:09:30.346Z,0
2017-10-25T03:09:56.491Z,0
2017-10-25T03:10:22.616Z,0
2017-10-25T03:10:48.737Z,0
2017-10-25T03:11:14.866Z,0
2017-10-25T03:11:40.985Z,0
2017-10-25T03:12:07.135Z,0
2017-10-25T03:12:33.257Z,0
2017-10-25T03:12:59.391Z,0
2017-10-25T03:13:25.513Z,0
2017-10-25T03:13:51.633Z,0
2017-10-25T03:14:17.761Z,0
2017-10-25T03:14:43.880Z,0
2017-10-25T03:15:10.008Z,0
2017-10-25T03:15:36.131Z,0
2017-10-25T03:16:02.250Z,0
2017-10-25T03:16:28.400Z,0
2017-10-25T03:16:54.525Z,0
2017-10-25T03:17:20.647Z,0
2017-10-25T03:17:46.777Z,0
2017-10-25T03:18:12.909Z,0
2017-10-25T03:18:39.023Z,0
2017-10-25T03:19:05.150Z,0
2017-10-25T03:19:31.271Z,0
2017-10-25T03:19:57.410Z,0
2017-10-25T03:20:23.535Z,0
2017-10-25T03:20:49.660Z,0
2017-10-25T03:21:15.784Z,0
2017-10-25T03:21:41.905Z,0
2017-10-25T03:22:08.023Z,0
2017-10-25T03:22:34.157Z,0
2017-10-25T03:23:00.274Z,0
2017-10-25T03:23:26.404Z,0
2017-10-25T03:23:52.546Z,0
2017-10-25T03:24:18.665Z,0
2017-10-25T03:24:44.782Z,0
2017-10-25T03:25:10.901Z,0
2017-10-25T03:25:37.023Z,0
2017-10-25T03:26:03.171Z,0
2017-10-25T03:26:29.293Z,0
2017-10-25T03:26:55.417Z,0
2017-10-25T03:27:21.538Z,0
2017-10-25T03:27:47.671Z,0
2017-10-25T03:28:13.786Z,0
2017-10-25T03:28:39.930Z,0
2017-10-25T03:29:06.063Z,0
2017-10-25T03:29:32.186Z,0
2017-10-25T03:29:58.314Z,0
2017-10-25T03:30:24.433Z,0
2017-10-25T03:30:50.554Z,0
2017-10-25T03:31:16.679Z,0
2017-10-25T03:31:42.808Z,0
2017-10-25T03:32:08.925Z,0
2017-10-25T03:32:35.045Z,0
2017-10-25T03:33:01.180Z,0
2017-10-25T03:33:27.298Z,0
2017-10-25T03:33:53.418Z,0
2017-10-25T03:34:19.544Z,0
2017-10-25T03:34:45.675Z,0
2017-10-25T03:35:11.797Z,0
2017-10-25T03:35:37.916Z,0
2017-10-25T03:36:04.055Z,0
2017-10-25T03:36:30.170Z,0
2017-10-25T03:36:56.288Z,0
2017-10-25T03:37:22.418Z,0
2017-10-25T03:37:48.542Z,0
2017-10-25T03:38:14.661Z,0
2017-10-25T03:38:40.787Z,0
2017-10-25T03:39:06.906Z,0
2017-10-25T03:39:33.036Z,0
2017-10-25T03:39:59.159Z,0
2017-10-25T03:40:25.295Z,0
2017-10-25T03:40:51.408Z,0
2017-10-25T03:41:17.525Z,0
2017-10-25T03:41:43.654Z,0
2017-10-25T03:42:09.774Z,0
2017-10-25T03:42:35.904Z,0
2017-10-25T03:43:02.027Z,0
2017-10-25T03:43:28.151Z,0
2017-10-25T03:43:54.291Z,0
2017-10-25T03:44:20.421Z,0
2017-10-25T03:44:46.544Z,0
2017-10-25T03:45:12.662Z,0
2017-10-25T03:45:38.783Z,0
2017-10-25T03:46:04.913Z,0
2017-10-25T03:46:31.043Z,0
2017-10-25T03:46:57.157Z,0
2017-10-25T03:47:23.285Z,0
2017-10-25T03:47:49.405Z,0
2017-10-25T03:48:15.549Z,0
2017-10-25T03:48:41.677Z,0
2017-10-25T03:49:07.803Z,0
2017-10-25T03:49:33.921Z,0
2017-10-25T03:50:00.052Z,0
2017-10-25T03:50:26.181Z,0
2017-10-25T03:50:52.305Z,0
2017-10-25T03:51:18.426Z,0
2017-10-25T03:51:44.549Z,0
2017-10-25T03:52:10.679Z,0
2017-10-25T03:52:36.798Z,0
2017-10-25T03:53:02.920Z,0
2017-10-25T03:53:29.040Z,0
2017-10-25T03:53:55.165Z,0
2017-10-25T03:54:21.298Z,0
2017-10-25T03:54:47.423Z,0
2017-10-25T03:55:13.543Z,0
2017-10-25T03:55:39.666Z,0
2017-10-25T03:56:05.792Z,0
2017-10-25T03:56:31.932Z,0
2017-10-25T03:56:58.055Z,0
2017-10-25T03:57:24.179Z,0
2017-10-25T03:57:50.308Z,0
2017-10-25T03:58:16.422Z,0
2017-10-25T03:58:42.550Z,0
2017-10-25T03:59:08.673Z,0
2017-10-25T03:59:34.796Z,0
2017-10-25T04:00:00.928Z,0
2017-10-25T04:00:27.051Z,0
2017-10-25T04:00:53.170Z,0
2017-10-25T04:01:19.300Z,0
2017-10-25T04:01:45.420Z,0
2017-10-25T04:02:11.540Z,0
2017-10-25T04:02:37.669Z,0
2017-10-25T04:03:03.789Z,0
2017-10-25T04:03:29.915Z,0
2017-10-25T04:03:56.046Z,0
2017-10-25T04:04:22.164Z,0
2017-10-25T04:04:48.306Z,0
2017-10-25T04:05:14.429Z,0
2017-10-25T04:05:40.560Z,0
2017-10-25T04:06:06.678Z,0
2017-10-25T04:06:32.804Z,0
2017-10-25T04:06:58.932Z,0
2017-10-25T04:07:25.051Z,0
2017-10-25T04:07:51.176Z,0
2017-10-25T04:08:17.297Z,0
2017-10-25T04:08:43.423Z,0
2017-10-25T04:09:09.549Z,0
2017-10-25T04:09:35.679Z,0
2017-10-25T04:10:01.805Z,0
2017-10-25T04:10:27.925Z,0
2017-10-25T04:10:54.045Z,0
2017-10-25T04:11:20.173Z,0
2017-10-25T04:11:46.296Z,0
2017-10-25T04:12:12.420Z,0
2017-10-25T04:12:38.543Z,0
2017-10-25T04:13:04.674Z,0
2017-10-25T04:13:30.802Z,0
2017-10-25T04:13:56.920Z,0
2017-10-25T04:14:23.065Z,0
2017-10-25T04:14:49.184Z,0
2017-10-25T04:15:15.311Z,0
2017-10-25T04:15:41.431Z,0
2017-10-25T04:16:07.553Z,0
2017-10-25T04:16:33.675Z,0
2017-10-25T04:16:59.792Z,0
2017-10-25T04:17:25.919Z,0
2017-10-25T04:17:52.038Z,0
2017-10-25T04:18:18.166Z,0
2017-10-25T04:18:44.291Z,0
2017-10-25T04:19:10.409Z,0
2017-10-25T04:19:36.534Z,0
2017-10-25T04:20:02.668Z,0
2017-10-25T04:20:28.793Z,0
2017-10-25T04:20:54.914Z,0
2017-10-25T04:21:21.044Z,0
2017-10-25T04:21:47.165Z,0
2017-10-25T04:22:13.284Z,0
2017-10-25T04:22:39.413Z,0
2017-10-25T04:23:05.538Z,0
2017-10-25T04:23:31.656Z,0
2017-10-25T04:23:57.779Z,0
2017-10-25T04:24:23.904Z,0
2017-10-25T04:24:50.033Z,0
2017-10-25T04:25:16.151Z,0
2017-10-25T04:25:42.272Z,0
2017-10-25T04:26:08.399Z,0
2017-10-25T04:26:34.529Z,0
2017-10-25T04:27:00.651Z,0
2017-10-25T04:27:26.769Z,0
2017-10-25T04:27:52.897Z,0
2017-10-25T04:28:19.022Z,0
2017-10-25T04:28:45.143Z,0
2017-10-25T04:29:11.266Z,0
2017-10-25T04:29:37.395Z,0
2017-10-25T04:30:03.522Z,0
2017-10-25T04:30:29.641Z,0
2017-10-25T04:30:55.769Z,0
2017-10-25T04:31:21.887Z,0
2017-10-25T04:31:48.018Z,0
2017-10-25T04:32:14.138Z,0
2017-10-25T04:32:40.264Z,0
2017-10-25T04:33:06.387Z,0
2017-10-25T04:33:32.512Z,0
2017-10-25T04:33:58.643Z,0
2017-10-25T04:34:24.771Z,0
2017-10-25T04:34:50.891Z,0
2017-10-25T04:35:17.012Z,0
2017-10-25T04:35:43.132Z,0
2017-10-25T04:36:09.255Z,0
2017-10-25T04:36:35.387Z,0
2017-10-25T04:37:01.508Z,0
2017-10-25T04:37:27.631Z,0
2017-10-25T04:37:53.755Z,0
2017-10-25T04:38:19.881Z,0
2017-10-25T04:38:46.001Z,0
2017-10-25T04:39:12.128Z,0
2017-10-25T04:39:38.252Z,0
2017-10-25T04:40:04.386Z,0
2017-10-25T04:40:30.515Z,0
2017-10-25T04:40:56.632Z,0
2017-10-25T04:41:22.757Z,0
2017-10-25T04:41:48.885Z,0
2017-10-25T04:42:15.009Z,0
2017-10-25T04:42:41.129Z,0
2017-10-25T04:43:07.258Z,0
2017-10-25T04:43:33.381Z,0
2017-10-25T04:43:59.507Z,0
2017-10-25T04:44:25.629Z,0
2017-10-25T04:44:51.753Z,0
2017-10-25T04:45:17.872Z,0
2017-10-25T04:45:43.999Z,0
2017-10-25T04:46:10.121Z,0
2017-10-25T04:46:36.243Z,0
2017-10-25T04:47:02.394Z,0
2017-10-25T04:47:28.515Z,0
2017-10-25T04:47:54.640Z,0
2017-10-25T04:48:20.761Z,0
2017-10-25T04:48:46.886Z,0
2017-10-25T04:49:13.012Z,0
2017-10-25T04:49:39.136Z,0
2017-10-25T04:50:05.256Z,0
2017-10-25T04:50:31.388Z,0
2017-10-25T04:50:57.528Z,0
2017-10-25T04:51:23.648Z,0
2017-10-25T04:51:49.777Z,0
2017-10-25T04:52:15.901Z,0
2017-10-25T04:52:42.041Z,0
2017-10-25T04:53:08.171Z,0
2017-10-25T04:53:34.295Z,0
2017-10-25T04:54:00.420Z,0
2017-10-25T04:54:26.549Z,0
2017-10-25T04:54:52.659Z,0
2017-10-25T04:55:18.835Z,0
2017-10-25T04:55:44.937Z,0
2017-10-25T04:56:11.055Z,0
2017-10-25T04:56:37.176Z,0
2017-10-25T04:57:03.299Z,0
2017-10-25T04:57:29.427Z,0
2017-10-25T04:57:55.552Z,0
2017-10-25T04:58:21.677Z,0
2017-10-25T04:58:47.806Z,0
2017-10-25T04:59:13.925Z,0
2017-10-25T04:59:40.056Z,0
2017-10-25T05:00:06.178Z,0
2017-10-25T05:00:32.300Z,0
2017-10-25T05:00:58.426Z,0
2017-10-25T05:01:24.552Z,0
2017-10-25T05:01:50.667Z,0
2017-10-25T05:02:16.797Z,0
2017-10-25T05:02:42.916Z,0
2017-10-25T05:03:09.043Z,0
2017-10-25T05:03:35.169Z,0
2017-10-25T05:04:01.287Z,0
2017-10-25T05:04:27.417Z,0
2017-10-25T05:04:53.543Z,0
2017-10-25T05:05:19.662Z,0
2017-10-25T05:05:45.791Z,0
2017-10-25T05:06:11.914Z,0
2017-10-25T05:06:38.035Z,0
2017-10-25T05:07:04.169Z,0
2017-10-25T05:07:30.284Z,0
2017-10-25T05:07:56.412Z,0
2017-10-25T05:08:22.539Z,0
2017-10-25T05:08:48.657Z,0
2017-10-25T05:09:14.782Z,0
2017-10-25T05:09:40.908Z,0
2017-10-25T05:10:07.032Z,0
2017-10-25T05:10:33.153Z,0
2017-10-25T05:10:59.281Z,0
2017-10-25T05:11:25.403Z,0
2017-10-25T05:11:51.530Z,0
2017-10-25T05:12:17.647Z,0
2017-10-25T05:12:43.768Z,0
2017-10-25T05:13:09.897Z,0
2017-10-25T05:13:36.017Z,0
2017-10-25T05:14:02.144Z,0
2017-10-25T05:14:28.270Z,0
2017-10-25T05:14:54.389Z,0
2017-10-25T05:15:20.517Z,0
2017-10-25T05:15:46.638Z,0
2017-10-25T05:16:12.760Z,0
2017-10-25T05:16:38.889Z,0
2017-10-25T05:17:05.012Z,0
2017-10-25T05:17:31.140Z,0
2017-10-25T05:17:57.260Z,0
2017-10-25T05:18:23.388Z,0
2017-10-25T05:18:49.513Z,0
2017-10-25T05:19:15.633Z,0
2017-10-25T05:19:41.761Z,0
2017-10-25T05:20:07.877Z,0
2017-10-25T05:20:34.006Z,0
2017-10-25T05:21:00.125Z,0
2017-10-25T05:21:26.242Z,0
2017-10-25T05:21:52.367Z,0
2017-10-25T05:22:18.496Z,0
2017-10-25T05:22:44.623Z,0
2017-10-25T05:23:10.752Z,0
2017-10-25T05:23:36.871Z,0
2017-10-25T05:24:03.018Z,0
2017-10-25T05:24:29.142Z,0
2017-10-25T05:24:55.265Z,0
2017-10-25T05:25:21.395Z,0
2017-10-25T05:25:47.522Z,0
2017-10-25T05:26:13.662Z,0
2017-10-25T05:26:39.796Z,0
2017-10-25T05:27:05.908Z,0
2017-10-25T05:27:32.033Z,0
2017-10-25T05:27:58.171Z,0
2017-10-25T05:28:24.298Z,0
2017-10-25T05:28:50.419Z,0
2017-10-25T05:29:16.549Z,0
2017-10-25T05:29:42.689Z,0
2017-10-25T05:30:08.833Z,0
2017-10-25T05:30:34.963Z,0
2017-10-25T05:31:01.091Z,0
2017-10-25T05:31:27.229Z,0
2017-10-25T05:31:53.353Z,0
2017-10-25T05:32:19.481Z,0
2017-10-25T05:32:45.620Z,0
2017-10-25T05:33:11.752Z,0
2017-10-25T05:33:37.873Z,0
2017-10-25T05:34:03.998Z,0
2017-10-25T05:34:30.143Z,0
2017-10-25T05:34:56.274Z,0
2017-10-25T05:35:22.396Z,0
2017-10-25T05:35:48.654Z,0
2017-10-25T05:36:14.873Z,0
2017-10-25T05:36:41.078Z,0
2017-10-25T05:37:07.260Z,0
2017-10-25T05:37:33.416Z,0
2017-10-25T05:37:59.564Z,0
2017-10-25T05:38:25.763Z,0
2017-10-25T05:38:52.875Z,0
2017-10-25T05:39:19.049Z,0
2017-10-25T05:39:45.198Z,0
2017-10-25T05:40:11.321Z,0
2017-10-25T05:40:37.445Z,0
2017-10-25T05:41:03.640Z,0
2017-10-25T05:41:29.845Z,0
2017-10-25T05:41:56.014Z,0
2017-10-25T05:42:22.179Z,0
2017-10-25T05:42:48.306Z,0
2017-10-25T05:43:14.491Z,0
2017-10-25T05:43:40.663Z,0
2017-10-25T05:44:06.787Z,0
2017-10-25T05:44:32.933Z,0
2017-10-25T05:44:59.104Z,4
2017-10-25T05:45:25.221Z,4
2017-10-25T05:45:51.410Z,4
2017-10-25T05:46:17.571Z,4
2017-10-25T05:46:43.723Z,0
2017-10-25T05:47:09.890Z,0
2017-10-25T05:47:36.007Z,4
2017-10-25T05:48:02.183Z,4
2017-10-25T05:48:28.311Z,4
2017-10-25T05:48:54.439Z,4
2017-10-25T05:49:20.556Z,4
2017-10-25T05:49:46.734Z,4
2017-10-25T05:50:12.930Z,8
2017-10-25T05:50:39.183Z,8
2017-10-25T05:51:05.299Z,8
2017-10-25T05:51:31.434Z,4
2017-10-25T05:51:57.560Z,4
2017-10-25T05:52:23.683Z,8
2017-10-25T05:52:49.837Z,12
2017-10-25T05:53:15.990Z,8
2017-10-25T05:53:42.199Z,12
2017-10-25T05:54:08.561Z,12
2017-10-25T05:54:34.689Z,12
2017-10-25T05:55:00.905Z,20
2017-10-25T05:55:27.033Z,20
2017-10-25T05:55:53.158Z,20
2017-10-25T05:56:19.278Z,20
2017-10-25T05:56:46.825Z,24
2017-10-25T05:57:13.412Z,24
2017-10-25T05:57:40.155Z,24
2017-10-25T05:58:06.329Z,28
2017-10-25T05:58:32.443Z,28
2017-10-25T05:58:58.596Z,32
2017-10-25T05:59:24.738Z,28
2017-10-25T05:59:50.904Z,20
2017-10-25T06:00:17.030Z,24
2017-10-25T06:00:43.153Z,28
2017-10-25T06:01:09.273Z,32
2017-10-25T06:01:35.403Z,28
2017-10-25T06:02:01.536Z,32
2017-10-25T06:02:27.659Z,36
2017-10-25T06:02:53.788Z,40
2017-10-25T06:03:19.906Z,44
2017-10-25T06:03:46.074Z,44
2017-10-25T06:04:12.211Z,48
2017-10-25T06:04:38.337Z,48
2017-10-25T06:05:04.464Z,56
2017-10-25T06:05:30.585Z,72
2017-10-25T06:05:56.740Z,84
2017-10-25T06:06:22.860Z,88
2017-10-25T06:06:48.979Z,92
2017-10-25T06:07:15.104Z,96
2017-10-25T06:07:41.230Z,96
2017-10-25T06:08:07.357Z,100
2017-10-25T06:08:33.479Z,116
2017-10-25T06:08:59.609Z,128
2017-10-25T06:09:25.732Z,132
2017-10-25T06:09:51.858Z,136
2017-10-25T06:10:18.045Z,152
2017-10-25T06:10:44.170Z,160
2017-10-25T06:11:10.289Z,164
2017-10-25T06:11:36.411Z,168
2017-10-25T06:12:02.532Z,180
2017-10-25T06:12:28.678Z,188
2017-10-25T06:12:54.801Z,192
2017-10-25T06:13:20.922Z,192
2017-10-25T06:13:47.051Z,204
2017-10-25T06:14:13.173Z,204
2017-10-25T06:14:39.298Z,200
2017-10-25T06:15:05.419Z,204
2017-10-25T06:15:31.541Z,216
2017-10-25T06:15:57.670Z,224
2017-10-25T06:16:23.816Z,236
2017-10-25T06:16:49.935Z,244
2017-10-25T06:17:16.056Z,264
2017-10-25T06:17:42.184Z,272
2017-10-25T06:18:08.306Z,280
2017-10-25T06:18:34.455Z,292
2017-10-25T06:19:00.582Z,304
2017-10-25T06:19:26.703Z,324
2017-10-25T06:19:52.830Z,348
2017-10-25T06:20:18.947Z,368
2017-10-25T06:20:45.530Z,380
2017-10-25T06:21:11.583Z,400
2017-10-25T06:21:37.704Z,416
2017-10-25T06:22:03.830Z,432
2017-10-25T06:22:29.960Z,436
2017-10-25T06:22:56.102Z,444
2017-10-25T06:23:22.222Z,452
2017-10-25T06:23:48.352Z,460
2017-10-25T06:24:14.470Z,476
2017-10-25T06:24:40.596Z,532